Flight Track Log - Related Links

Times and Time Zones

All times are in EDT time to prevent confusion due to time zone crossing. See the UPS32 flight status page for this flight to view local times or setup timezone preferences in your user account.

Time Position Orientation Groundspeed Altitude Reporting Facility
EDT Latitude Longitude Course Direction KTS MPH feet Rate Location/Type
Sun 05:22:32 AM 38.1490 -85.7380 167° South 184 212 1,000  Level FlightAware ADS-B
Sun 05:23:02 AM 38.1210 -85.7440 190° South 233 268 1,500 933 Climbing FlightAware ADS-B
Sun 05:23:17 AM 38.1050 -85.7500 196° South 255 293 1,700 1,800 Climbing FlightAware ADS-B
Sun 05:23:42 AM 38.0760 -85.7600 195° South 272 313 2,700 2,700 Climbing FlightAware ADS-B
Sun 05:23:57 AM 38.0590 -85.7720 209° Southwest 280 322 3,500 3,600 Climbing FlightAware ADS-B
Sun 05:24:12 AM 38.0460 -85.7930 232° Southwest 283 326 4,500 3,600 Climbing FlightAware ADS-B
Sun 05:24:37 AM 38.0350 -85.8300 249° West 283 326 5,900 3,000 Climbing FlightAware ADS-B
Sun 05:24:52 AM 38.0280 -85.8520 248° West 292 336 6,500 2,933 Climbing FlightAware ADS-B
Sun 05:25:22 AM 38.0100 -85.9040 246° West 301 346 8,100 3,067 Climbing FlightAware ADS-B
Sun 05:25:37 AM 38.0050 -85.9270 255° West 299 344 8,800 1,855 Climbing FlightAware ADS-B
Sun 05:26:17 AM 38.0110 -86.0000 276° West 343 395 9,800 1,350 Climbing FlightAware ADS-B
Sun 05:26:57 AM 38.0250 -86.0830 282° West 389 448 10,600 1,906 Climbing FlightAware ADS-B
Sun 05:27:42 AM 38.0400 -86.1930 280° West 414 476 12,500 2,682 Climbing FlightAware ADS-B
Sun 05:28:22 AM 38.0570 -86.2890 283° West 422 486 14,400 2,925 Climbing FlightAware ADS-B
Sun 05:29:02 AM 38.0710 -86.3840 281° West 426 490 16,400 2,471 Climbing FlightAware ADS-B
Sun 05:29:47 AM 38.0870 -86.4980 280° West 445 512 17,900 2,259 Climbing FlightAware ADS-B
Sun 05:30:27 AM 38.1000 -86.5960 280° West 448 516 19,600 2,471 Climbing FlightAware ADS-B
Sun 05:31:12 AM 38.1170 -86.7190 280° West 457 526 21,400 2,188 Climbing FlightAware ADS-B
Sun 05:31:52 AM 38.1330 -86.8260 281° West 464 534 22,700 1,906 Climbing FlightAware ADS-B
Sun 05:32:37 AM 38.1500 -86.9470 280° West 469 540 24,100 2,118 Climbing FlightAware ADS-B
Sun 05:33:17 AM 38.1660 -87.0580 280° West 463 533 25,700 2,475 Climbing FlightAware ADS-B
Sun 05:33:57 AM 38.1810 -87.1610 281° West 453 521 27,400 2,175 Climbing FlightAware ADS-B
Sun 05:34:37 AM 38.1960 -87.2680 280° West 452 520 28,600 1,575 Climbing FlightAware ADS-B
Sun 05:35:17 AM 38.2100 -87.3680 280° West 454 522 29,500 1,575 Climbing FlightAware ADS-B
Sun 05:35:57 AM 38.2240 -87.4730 280° West 449 517 30,700 1,694 Climbing FlightAware ADS-B
Sun 05:36:42 AM 38.2410 -87.5910 280° West 444 511 31,900 918 Climbing FlightAware ADS-B
Sun 05:37:22 AM 38.2540 -87.6940 279° West 446 513 32,000 75 Climbing FlightAware ADS-B
Sun 05:38:02 AM 38.2680 -87.7980 280° West 446 513 32,000  Level FlightAware ADS-B
Sun 05:38:47 AM 38.2840 -87.9170 280° West 446 513 32,000  Level FlightAware ADS-B
Sun 05:39:27 AM 38.2980 -88.0200 280° West 447 514 32,000  Level FlightAware ADS-B
Sun 05:40:07 AM 38.3120 -88.1240 280° West 448 516 32,000  Level FlightAware ADS-B
Sun 05:40:52 AM 38.3270 -88.2390 279° West 449 517 32,000  Level FlightAware ADS-B
Sun 05:41:32 AM 38.3410 -88.3430 280° West 449 517 32,000  Level FlightAware ADS-B
Sun 05:42:17 AM 38.3560 -88.4630 279° West 449 517 32,000  Level FlightAware ADS-B
Sun 05:42:57 AM 38.3700 -88.5680 280° West 451 519 32,000  Level FlightAware ADS-B
Sun 05:43:42 AM 38.3840 -88.6830 279° West 452 520 32,000  Level FlightAware ADS-B
Sun 05:44:22 AM 38.3980 -88.7910 279° West 452 520 32,000  Level FlightAware ADS-B
Sun 05:45:02 AM 38.4100 -88.8890 279° West 453 521 32,000  Level FlightAware ADS-B
Sun 05:45:47 AM 38.4240 -89.0040 279° West 453 521 32,000  Level FlightAware ADS-B
Sun 05:46:27 AM 38.4380 -89.1150 279° West 454 522 32,000  Level FlightAware ADS-B
Sun 05:47:22 AM 38.4560 -89.2640 279° West 455 524 32,000  Level FlightAware ADS-B
Sun 05:47:52 AM 38.4660 -89.3430 279° West 456 525 32,000  Level FlightAware ADS-B
Sun 05:48:32 AM 38.4760 -89.4380 278° West 456 525 32,000  Level FlightAware ADS-B
Sun 05:49:17 AM 38.4930 -89.5660 280° West 456 525 32,000  Level FlightAware ADS-B
Sun 05:49:57 AM 38.5050 -89.6730 278° West 455 524 32,000  Level FlightAware ADS-B
Sun 05:50:42 AM 38.5200 -89.7950 279° West 454 522 32,000  Level FlightAware ADS-B
Sun 05:51:22 AM 38.5320 -89.9040 278° West 454 522 32,000  Level FlightAware ADS-B
Sun 05:52:02 AM 38.5440 -90.0070 279° West 454 522 32,000  Level FlightAware ADS-B
Sun 05:52:47 AM 38.5580 -90.1270 279° West 454 522 32,000  Level FlightAware ADS-B
Sun 05:53:27 AM 38.5700 -90.2360 278° West 454 522 32,000  Level FlightAware ADS-B
Sun 05:54:07 AM 38.5810 -90.3370 278° West 454 522 32,000  Level FlightAware ADS-B
Sun 05:54:52 AM 38.5950 -90.4590 278° West 453 521 32,000  Level FlightAware ADS-B
Sun 05:55:32 AM 38.6070 -90.5650 278° West 453 521 32,000  Level FlightAware ADS-B
Sun 05:56:17 AM 38.6200 -90.6810 278° West 453 521 32,000  Level FlightAware ADS-B
Sun 05:56:57 AM 38.6320 -90.7930 278° West 453 521 32,000  Level FlightAware ADS-B
Sun 05:57:37 AM 38.6430 -90.8930 278° West 452 520 32,000  Level FlightAware ADS-B
Sun 05:58:22 AM 38.6550 -91.0160 277° West 453 521 32,000  Level FlightAware ADS-B
Sun 05:59:02 AM 38.6670 -91.1220 278° West 453 521 32,000  Level FlightAware ADS-B
Sun 05:59:47 AM 38.6790 -91.2440 277° West 454 522 32,000  Level FlightAware ADS-B
Sun 06:00:27 AM 38.6900 -91.3450 278° West 454 522 32,000  Level FlightAware ADS-B
Sun 06:01:02 AM 38.6990 -91.4350 277° West 454 522 32,000  Level FlightAware ADS-B
Sun 06:01:52 AM 38.7100 -91.5490 277° West 454 522 32,000  Level FlightAware ADS-B
Sun 06:02:32 AM 38.7180 -91.6400 276° West 454 522 32,000  Level FlightAware ADS-B
Sun 06:03:12 AM 38.7270 -91.7310 277° West 454 522 32,000  Level FlightAware ADS-B
Sun 06:03:52 AM 38.7360 -91.8220 277° West 454 522 32,000  Level FlightAware ADS-B
Sun 06:04:32 AM 38.7440 -91.9120 277° West 454 522 32,000  Level FlightAware ADS-B
Sun 06:05:22 AM 38.7550 -92.0260 277° West 454 522 32,000  Level FlightAware ADS-B
Sun 06:06:02 AM 38.7640 -92.1170 277° West 454 522 32,000  Level FlightAware ADS-B
Sun 06:06:42 AM 38.7730 -92.2080 277° West 454 522 32,000  Level FlightAware ADS-B
Sun 06:07:22 AM 38.7810 -92.2990 276° West 454 522 32,000  Level FlightAware ADS-B
Sun 06:08:02 AM 38.7900 -92.3900 277° West 454 522 32,000  Level FlightAware ADS-B
Sun 06:08:52 AM 38.8010 -92.5030 277° West 454 522 32,000  Level FlightAware ADS-B
Sun 06:09:32 AM 38.8310 -92.8100 277° West 456 525 32,000  Level FlightAware ADS-B
Sun 06:10:07 AM 38.8380 -92.8940 276° West 456 525 32,000  Level FlightAware ADS-B
Sun 06:10:57 AM 38.8520 -93.0380 277° West 456 525 32,000  Level FlightAware ADS-B
Sun 06:11:37 AM 38.8610 -93.1480 276° West 456 525 32,000  Level FlightAware ADS-B
Sun 06:12:22 AM 38.8710 -93.2670 276° West 456 525 32,000  Level FlightAware ADS-B
Sun 06:13:02 AM 38.8800 -93.3720 276° West 456 525 32,000  Level FlightAware ADS-B
Sun 06:13:47 AM 38.8910 -93.4960 277° West 457 526 32,000  Level FlightAware ADS-B
Sun 06:14:27 AM 38.9000 -93.6060 276° West 457 526 32,000  Level FlightAware ADS-B
Sun 06:15:07 AM 38.9090 -93.7140 276° West 458 527 32,000  Level FlightAware ADS-B
Sun 06:15:52 AM 38.9180 -93.8310 276° West 458 527 32,000  Level FlightAware ADS-B
Sun 06:16:32 AM 38.9270 -93.9390 276° West 459 528 32,000  Level FlightAware ADS-B
Sun 06:17:12 AM 38.9360 -94.0470 276° West 459 528 32,000  Level FlightAware ADS-B
Sun 06:17:57 AM 38.9460 -94.1720 276° West 460 529 32,000  Level FlightAware ADS-B
Sun 06:18:37 AM 38.9540 -94.2830 275° West 459 528 32,000  Level FlightAware ADS-B
Sun 06:19:22 AM 38.9640 -94.4020 276° West 458 527 32,000  Level FlightAware ADS-B
Sun 06:20:02 AM 38.9720 -94.5110 275° West 458 527 32,000  Level FlightAware ADS-B
Sun 06:20:47 AM 38.9810 -94.6320 276° West 457 526 32,000  Level FlightAware ADS-B
Sun 06:21:27 AM 38.9890 -94.7400 275° West 456 525 32,000  Level FlightAware ADS-B
Sun 06:22:07 AM 38.9970 -94.8510 275° West 456 525 32,000  Level FlightAware ADS-B
Sun 06:22:52 AM 39.0050 -94.9700 275° West 456 525 32,000  Level FlightAware ADS-B
Sun 06:23:32 AM 39.0130 -95.0780 275° West 455 524 32,000  Level FlightAware ADS-B
Sun 06:24:12 AM 39.0200 -95.1850 275° West 455 524 32,000  Level FlightAware ADS-B
Sun 06:24:57 AM 39.0290 -95.3090 275° West 455 524 32,000  Level FlightAware ADS-B
Sun 06:25:37 AM 39.0360 -95.4150 275° West 457 526 32,000  Level FlightAware ADS-B
Sun 06:26:22 AM 39.0180 -95.1420 95° East 456 525 32,000  Level FlightAware ADS-B
Sun 06:27:02 AM 39.0250 -95.2500 275° West 456 525 32,000  Level FlightAware ADS-B
Sun 06:27:47 AM 39.0320 -95.3580 275° West 457 526 32,000  Level FlightAware ADS-B
Sun 06:28:27 AM 39.0370 -95.4260 275° West 458 527 32,000  Level FlightAware ADS-B
Sun 06:29:07 AM 39.0410 -95.4830 275° West 459 528 32,000  Level FlightAware ADS-B
Sun 06:29:52 AM 39.0470 -95.5720 275° West 460 529 32,000  Level FlightAware ADS-B
Sun 06:30:37 AM 39.0510 -95.6300 275° West 460 529 32,000  Level FlightAware ADS-B
Sun 06:31:07 AM 39.0540 -95.6810 274° West 459 528 32,000 75 Level FlightAware ADS-B
Sun 06:31:57 AM 39.0580 -95.7470 274° West 460 529 32,100 63 Climbing FlightAware ADS-B
Sun 06:32:42 AM 39.0620 -95.8070 275° West 460 529 32,100  Level FlightAware ADS-B
Sun 06:33:22 AM 39.0660 -95.8770 274° West 459 528 32,100 -80 Level FlightAware ADS-B
Sun 06:33:57 AM 39.0700 -95.9450 274° West 458 527 32,000 -60 Descending FlightAware ADS-B
Sun 06:35:02 AM 39.0770 -96.0560 275° West 456 525 32,000  Level FlightAware ADS-B
Sun 06:35:57 AM 39.0850 -96.1780 275° West 455 524 32,000  Level FlightAware ADS-B
Sun 06:36:37 AM 39.0920 -96.2700 276° West 455 524 32,000  Level FlightAware ADS-B
Sun 06:37:17 AM 39.0980 -96.3620 275° West 455 524 32,000  Level FlightAware ADS-B
Sun 06:37:57 AM 39.1040 -96.4540 275° West 455 524 32,000  Level FlightAware ADS-B
Sun 06:38:47 AM 39.1120 -96.5690 275° West 455 524 32,000  Level FlightAware ADS-B
Sun 06:39:27 AM 39.1180 -96.6610 275° West 455 524 32,000  Level FlightAware ADS-B
Sun 06:40:07 AM 39.1240 -96.7530 275° West 455 524 32,000  Level FlightAware ADS-B
Sun 06:40:47 AM 39.1310 -96.8450 276° West 455 524 32,000  Level FlightAware ADS-B
Sun 06:41:27 AM 39.1370 -96.9360 275° West 455 524 32,000  Level FlightAware ADS-B
Sun 06:42:07 AM 39.1430 -97.0280 275° West 455 524 32,000  Level FlightAware ADS-B
Sun 06:42:57 AM 39.1510 -97.1430 275° West 455 524 32,000  Level FlightAware ADS-B
Sun 06:43:37 AM 39.1570 -97.2350 275° West 455 524 32,000  Level FlightAware ADS-B
Sun 06:44:17 AM 39.1630 -97.3270 275° West 455 524 32,000  Level FlightAware ADS-B
Sun 06:44:57 AM 39.1690 -97.4190 275° West 455 524 32,000 -83 Level FlightAware ADS-B
Sun 06:45:29 AM 39.2083 -98.6181 275° West 447 514 31,900  Descending Kansas City Center
Sun 06:46:30 AM 39.2150 -98.7719 273° West 448 516 32,000 49 Climbing Kansas City Center
Sun 06:47:31 AM 39.2197 -98.9444 272° West 455 524 32,000  Level Kansas City Center
Sun 06:48:29 AM 39.2261 -99.1064 273° West 455 524 32,000  Level Kansas City Center
Sun 06:49:30 AM 39.2322 -99.2683 273° West 454 522 32,000  Level Kansas City Center
Sun 06:50:32 AM 39.2361 -99.4317 272° West 455 524 32,000  Level Kansas City Center
Sun 06:51:33 AM 39.2411 -99.5908 272° West 455 524 32,000  Level Denver Center
Sun 06:52:33 AM 39.2475 -99.7686 273° West 447 514 32,000  Level Denver Center
Sun 06:53:33 AM 39.2511 -99.9211 272° West 444 511 32,000  Level Denver Center
Sun 06:54:33 AM 39.2553 -100.0722 272° West 442 509 32,000  Level Denver Center
Sun 06:55:33 AM 39.2592 -100.2261 272° West 447 514 32,000 50 Level Denver Center
Sun 06:56:34 AM 39.2644 -100.4086 272° West 455 524 32,100  Climbing Denver Center
Sun 06:57:34 AM 39.2675 -100.5644 272° West 454 522 32,000 -50 Descending Denver Center
Sun 06:58:34 AM 39.2708 -100.7203 272° West 455 524 32,000  Level Denver Center
Sun 07:04:36 AM 39.2882 -101.7020 272° West 445 512 32,000  Level FlightAware ADS-B
Sun 07:05:06 AM 39.2893 -101.7810 271° West 445 512 32,000  Level FlightAware ADS-B
Sun 07:05:37 AM 39.2899 -101.8640 271° West 445 512 32,000  Level FlightAware ADS-B
Sun 07:06:08 AM 39.2910 -101.9450 271° West 444 511 32,000  Level FlightAware ADS-B
Sun 07:06:38 AM 39.2918 -102.0250 271° West 444 511 32,000  Level FlightAware ADS-B
Sun 07:07:08 AM 39.2926 -102.1040 271° West 444 511 32,000  Level FlightAware ADS-B
Sun 07:07:39 AM 39.2933 -102.1860 271° West 443 510 32,000  Level FlightAware ADS-B
Sun 07:08:09 AM 39.2940 -102.2660 271° West 443 510 32,000 100 Level FlightAware ADS-B
Sun 07:08:39 AM 39.2948 -102.3450 271° West 443 510 32,100  Climbing FlightAware ADS-B
Sun 07:09:10 AM 39.2953 -102.4270 270° West 443 510 32,000 -98 Descending FlightAware ADS-B
Sun 07:09:40 AM 39.2959 -102.5060 271° West 443 510 32,000  Level FlightAware ADS-B
Sun 07:10:11 AM 39.2964 -102.5880 270° West 443 510 32,000  Level FlightAware ADS-B
Sun 07:10:41 AM 39.2967 -102.6670 270° West 442 509 32,000  Level FlightAware ADS-B
Sun 07:11:12 AM 39.2972 -102.7480 270° West 441 507 32,000  Level FlightAware ADS-B
Sun 07:11:44 AM 39.2973 -102.8300 270° West 441 507 32,000  Level FlightAware ADS-B
Sun 07:12:14 AM 39.2976 -102.9110 270° West 440 506 32,000  Level FlightAware ADS-B
Sun 07:12:45 AM 39.2977 -102.9930 270° West 440 506 32,000  Level FlightAware ADS-B
Sun 07:13:16 AM 39.2976 -103.0740 270° West 438 504 32,000  Level FlightAware ADS-B
Sun 07:13:47 AM 39.2982 -103.1550 271° West 437 503 32,000  Level FlightAware ADS-B
Sun 07:14:18 AM 39.2982 -103.2350 270° West 437 503 32,000  Level FlightAware ADS-B
Sun 07:14:48 AM 39.2980 -103.3130 270° West 437 503 32,000  Level FlightAware ADS-B
Sun 07:15:19 AM 39.2980 -103.3940 270° West 437 503 32,000  Level FlightAware ADS-B
Sun 07:15:50 AM 39.2979 -103.4750 270° West 437 503 32,000  Level FlightAware ADS-B
Sun 07:16:21 AM 39.2976 -103.5560 270° West 436 502 32,000  Level FlightAware ADS-B
Sun 07:16:51 AM 39.2971 -103.6340 270° West 436 502 32,000  Level FlightAware ADS-B
Sun 07:17:21 AM 39.2967 -103.7110 270° West 435 501 32,000  Level FlightAware ADS-B
Sun 07:17:52 AM 39.2963 -103.7920 270° West 436 502 32,000  Level FlightAware ADS-B
Sun 07:18:22 AM 39.2961 -103.8700 270° West 436 502 32,000  Level FlightAware ADS-B
Sun 07:18:53 AM 39.2959 -103.9510 270° West 437 503 32,000  Level FlightAware ADS-B
Sun 07:19:23 AM 39.2954 -104.0290 270° West 436 502 32,000 100 Level FlightAware ADS-B
Sun 07:19:53 AM 39.2948 -104.1070 269° West 437 503 32,100 98 Climbing FlightAware ADS-B
Sun 07:20:24 AM 39.2940 -104.1870 269° West 435 501 32,100 -92 Level FlightAware ADS-B
Sun 07:20:58 AM 39.2930 -104.2730 269° West 434 499 32,000 -94 Descending FlightAware ADS-B
Sun 07:21:28 AM 39.2923 -104.3530 269° West 432 497 32,000  Level FlightAware ADS-B
Sun 07:21:58 AM 39.2916 -104.4300 269° West 431 496 32,000  Level FlightAware ADS-B
Sun 07:22:29 AM 39.2908 -104.5090 269° West 430 495 32,000  Level FlightAware ADS-B
Sun 07:23:00 AM 39.2898 -104.5890 269° West 430 495 32,000  Level FlightAware ADS-B
Sun 07:23:32 AM 39.2890 -104.6710 269° West 429 494 32,000  Level FlightAware ADS-B
Sun 07:24:03 AM 39.2880 -104.7500 269° West 426 490 32,000  Level FlightAware ADS-B
Sun 07:24:34 AM 39.2868 -104.8260 269° West 424 488 32,000  Level FlightAware ADS-B
Sun 07:25:04 AM 39.2857 -104.9040 269° West 424 488 32,000  Level FlightAware ADS-B
Sun 07:25:35 AM 39.2845 -104.9820 269° West 422 486 32,000  Level FlightAware ADS-B
Sun 07:26:05 AM 39.2833 -105.0570 269° West 419 482 32,000  Level FlightAware ADS-B
Sun 07:26:36 AM 39.2818 -105.1350 269° West 418 481 32,000  Level FlightAware ADS-B
Sun 07:27:06 AM 39.2807 -105.2090 269° West 420 483 32,000  Level FlightAware ADS-B
Sun 07:27:37 AM 39.2799 -105.2850 269° West 425 489 32,000  Level FlightAware ADS-B
Sun 07:28:07 AM 39.2785 -105.3640 269° West 429 494 32,000 98 Level FlightAware ADS-B
Sun 07:28:38 AM 39.2767 -105.4440 268° West 433 498 32,100 97 Climbing FlightAware ADS-B
Sun 07:29:09 AM 39.2752 -105.5240 269° West 434 499 32,100  Level FlightAware ADS-B
Sun 07:29:39 AM 39.2737 -105.6010 269° West 435 501 32,100  Level FlightAware ADS-B
Sun 07:30:10 AM 39.2719 -105.6820 268° West 433 498 32,100 -98 Level FlightAware ADS-B
Sun 07:30:40 AM 39.2698 -105.7590 268° West 430 495 32,000 -100 Descending FlightAware ADS-B
Sun 07:31:10 AM 39.2684 -105.8360 269° West 430 495 32,000  Level FlightAware ADS-B
Sun 07:31:41 AM 39.2669 -105.9150 269° West 427 491 32,000  Level FlightAware ADS-B
Sun 07:32:11 AM 39.2651 -105.9910 268° West 428 493 32,000  Level FlightAware ADS-B
Sun 07:32:42 AM 39.2630 -106.0700 268° West 426 490 32,000  Level FlightAware ADS-B
Sun 07:33:12 AM 39.2609 -106.1460 268° West 429 494 32,000  Level FlightAware ADS-B
Sun 07:33:42 AM 39.2592 -106.2230 268° West 430 495 32,000 98 Level FlightAware ADS-B
Sun 07:34:13 AM 39.2574 -106.3030 268° West 428 493 32,100  Climbing FlightAware ADS-B
Sun 07:34:43 AM 39.2553 -106.3790 268° West 424 488 32,000 -98 Descending FlightAware ADS-B
Sun 07:35:14 AM 39.2527 -106.4570 268° West 421 484 32,000  Level FlightAware ADS-B
Sun 07:35:45 AM 39.2506 -106.5340 268° West 420 483 32,000  Level FlightAware ADS-B
Sun 07:36:16 AM 39.2485 -106.6120 268° West 418 481 32,000  Level FlightAware ADS-B
Sun 07:36:46 AM 39.2462 -106.6860 268° West 416 479 32,000  Level FlightAware ADS-B
Sun 07:37:17 AM 39.2439 -106.7630 268° West 415 478 32,000  Level FlightAware ADS-B
Sun 07:37:48 AM 39.2416 -106.8390 268° West 415 478 32,000  Level FlightAware ADS-B
Sun 07:38:19 AM 39.2392 -106.9160 268° West 417 480 32,000  Level FlightAware ADS-B
Sun 07:38:50 AM 39.2367 -106.9930 268° West 418 481 32,000  Level FlightAware ADS-B
Sun 07:39:20 AM 39.2343 -107.0680 268° West 419 482 32,000 98 Level FlightAware ADS-B
Sun 07:39:51 AM 39.2317 -107.1460 268° West 420 483 32,100 98 Climbing FlightAware ADS-B
Sun 07:40:21 AM 39.2292 -107.2200 268° West 421 484 32,100  Level FlightAware ADS-B
Sun 07:41:12 AM 39.2250 -107.3390 267° West 421 484 32,100 -54 Level FlightAware ADS-B
Sun 07:42:12 AM 39.2190 -107.4930 267° West 415 478 32,000 -60 Descending FlightAware ADS-B
Sun 07:42:52 AM 39.2160 -107.5820 268° West 413 475 32,000  Level FlightAware ADS-B
Sun 07:43:37 AM 39.2110 -107.7010 267° West 409 471 32,000  Level FlightAware ADS-B
Sun 07:44:17 AM 39.2080 -107.7980 268° West 411 473 32,000  Level FlightAware ADS-B
Sun 07:45:02 AM 39.2030 -107.9090 267° West 413 475 32,000  Level FlightAware ADS-B
Sun 07:45:42 AM 39.1990 -108.0070 267° West 414 476 32,000 75 Level FlightAware ADS-B
Sun 07:46:22 AM 39.1950 -108.1060 267° West 414 476 32,100  Climbing FlightAware ADS-B
Sun 07:47:07 AM 39.1910 -108.2120 267° West 413 475 32,000 -71 Descending FlightAware ADS-B
Sun 07:47:47 AM 39.1860 -108.3150 266° West 412 474 32,000  Level FlightAware ADS-B
Sun 07:48:22 AM 39.1820 -108.4000 267° West 412 474 32,000  Level FlightAware ADS-B
Sun 07:49:32 AM 39.1750 -108.5720 267° West 412 474 32,000  Level FlightAware ADS-B
Sun 07:50:07 AM 39.1710 -108.6550 266° West 412 474 32,000  Level FlightAware ADS-B
Sun 07:50:47 AM 39.1660 -108.7530 266° West 412 474 32,000  Level FlightAware ADS-B
Sun 07:51:37 AM 39.1600 -108.8760 266° West 412 474 32,000  Level FlightAware ADS-B
Sun 07:52:02 AM 39.1570 -108.9390 267° West 412 474 32,000  Level FlightAware ADS-B
Sun 07:52:57 AM 39.1510 -109.0610 266° West 413 475 32,000  Level FlightAware ADS-B
Sun 07:53:27 AM 39.1470 -109.1410 266° West 412 474 32,000  Level FlightAware ADS-B
Sun 07:54:17 AM 39.1410 -109.2630 266° West 414 476 32,000  Level FlightAware ADS-B
Sun 07:55:17 AM 39.1330 -109.4020 266° West 414 476 32,000  Level FlightAware ADS-B
Sun 07:55:47 AM 39.1300 -109.4650 267° West 414 476 32,000  Level FlightAware ADS-B
Sun 07:58:17 AM 39.1080 -109.8460 266° West 410 472 32,000  Level FlightAware ADS-B
Sun 07:59:12 AM 39.1030 -109.9470 266° West 408 470 32,000  Level FlightAware ADS-B
Sun 07:59:42 AM 39.0990 -110.0090 265° West 408 470 32,000  Level FlightAware ADS-B
Sun 08:00:22 AM 39.0950 -110.0910 266° West 408 470 32,000  Level FlightAware ADS-B
Sun 08:00:52 AM 39.0910 -110.1530 265° West 408 470 32,000  Level FlightAware ADS-B
Sun 08:01:32 AM 39.0870 -110.2350 266° West 408 470 32,000  Level FlightAware ADS-B
Sun 08:02:12 AM 39.0830 -110.3180 266° West 408 470 32,000  Level FlightAware ADS-B
Sun 08:02:52 AM 39.0780 -110.4000 266° West 408 470 32,000  Level FlightAware ADS-B
Sun 08:03:32 AM 39.0740 -110.4830 266° West 408 470 32,000  Level FlightAware ADS-B
Sun 08:04:12 AM 39.0690 -110.5650 266° West 408 470 32,000  Level FlightAware ADS-B
Sun 08:04:52 AM 39.0650 -110.6480 266° West 408 470 32,000  Level FlightAware ADS-B
Sun 08:05:22 AM 39.0610 -110.7100 265° West 408 470 32,000  Level FlightAware ADS-B
Sun 08:06:02 AM 39.0570 -110.7920 266° West 408 470 32,000  Level FlightAware ADS-B
Sun 08:06:42 AM 39.0520 -110.8750 266° West 408 470 32,000  Level FlightAware ADS-B
Sun 08:07:22 AM 39.0480 -110.9570 266° West 408 470 32,000  Level FlightAware ADS-B
Sun 08:08:02 AM 39.0430 -111.0390 266° West 408 470 32,000  Level FlightAware ADS-B
Sun 08:08:42 AM 39.0150 -111.3594 266° West 419 482 32,000  Level Salt Lake Center
Sun 08:09:43 AM 39.0036 -111.5075 264° West 418 481 32,000  Level Salt Lake Center
Sun 08:10:43 AM 38.9908 -111.6853 265° West 418 481 32,000  Level Salt Lake Center
Sun 08:11:43 AM 38.9806 -111.8344 265° West 420 483 32,000  Level Salt Lake Center
Sun 08:12:43 AM 38.9683 -111.9819 264° West 419 482 32,000  Level Salt Lake Center
Sun 08:13:43 AM 38.9578 -112.1300 265° West 418 481 32,000  Level Salt Lake Center
Sun 08:14:44 AM 38.9453 -112.2783 264° West 420 483 32,000  Level Salt Lake Center
Sun 08:15:44 AM 38.9336 -112.4264 264° West 420 483 32,000  Level Salt Lake Center
Sun 08:16:44 AM 38.9225 -112.5736 265° West 418 481 32,000  Level Salt Lake Center
Sun 08:17:44 AM 38.9100 -112.7200 264° West 415 478 32,000  Level Salt Lake Center
Sun 08:18:45 AM 38.8972 -112.8672 264° West 417 480 32,000  Level Salt Lake Center
Sun 08:19:45 AM 38.8847 -113.0136 264° West 416 479 32,000  Level Salt Lake Center
Sun 08:20:45 AM 38.8725 -113.1600 264° West 415 478 32,000  Level Salt Lake Center
Sun 08:21:45 AM 38.8597 -113.3083 264° West 419 482 32,000  Level Salt Lake Center
Sun 08:22:46 AM 38.8469 -113.4556 264° West 419 482 32,000  Level Salt Lake Center
Sun 08:23:46 AM 38.8336 -113.6031 263° West 420 483 32,000  Level Salt Lake Center
Sun 08:24:46 AM 38.8203 -113.7511 263° West 420 483 32,000  Level Salt Lake Center
Sun 08:25:46 AM 38.8067 -113.8997 263° West 422 486 32,000  Level Salt Lake Center
Sun 08:26:47 AM 38.7922 -114.0481 263° West 422 486 32,000  Level Salt Lake Center
Sun 08:27:47 AM 38.7786 -114.1969 263° West 423 487 32,000  Level Salt Lake Center
Sun 08:28:47 AM 38.7650 -114.3450 263° West 422 486 32,000  Level Salt Lake Center
Sun 08:29:47 AM 38.7497 -114.4950 263° West 425 489 32,000  Level Salt Lake Center
Sun 08:30:48 AM 38.7356 -114.6444 263° West 424 488 32,000  Level Salt Lake Center
Sun 08:31:48 AM 38.7208 -114.7933 263° West 425 489 32,000  Level Salt Lake Center
Sun 08:32:48 AM 38.7025 -114.9458 261° West 432 497 32,000  Level Salt Lake Center
Sun 08:33:49 AM 38.6858 -115.0972 262° West 434 499 32,000  Level Salt Lake Center
Sun 08:34:49 AM 38.6711 -115.2461 263° West 428 493 32,000  Level Salt Lake Center
Sun 08:35:49 AM 38.6567 -115.3961 263° West 426 490 32,000  Level Salt Lake Center
Sun 08:36:49 AM 38.6400 -115.5483 262° West 429 494 32,000  Level Salt Lake Center
Sun 08:37:50 AM 38.6244 -115.6989 263° West 428 493 32,000  Level Salt Lake Center
Sun 08:38:50 AM 38.6069 -115.8508 262° West 432 497 32,000  Level Salt Lake Center
Sun 08:39:50 AM 38.5903 -116.0011 262° West 429 494 32,000  Level Salt Lake Center
Sun 08:40:42 AM 38.5744 -116.1511 262° West 426 490 32,000  Level Oakland Center
Sun 08:41:42 AM 38.5575 -116.3031 262° West 432 497 32,000  Level Oakland Center
Sun 08:42:42 AM 38.5378 -116.4561 261° West 435 501 32,000  Level Oakland Center
Sun 08:43:42 AM 38.5142 -116.6078 259° West 439 505 32,000  Level Oakland Center
Sun 08:44:42 AM 38.4911 -116.7600 259° West 438 504 32,000  Level Oakland Center
Sun 08:45:42 AM 38.4681 -116.9125 259° West 440 506 32,000  Level Oakland Center
Sun 08:46:42 AM 38.4442 -117.0653 259° West 443 510 32,000  Level Oakland Center
Sun 08:47:43 AM 38.4203 -117.2172 259° West 442 509 32,000  Level Oakland Center
Sun 08:48:43 AM 38.3964 -117.3694 259° West 444 511 32,000  Level Oakland Center
Sun 08:49:43 AM 38.3722 -117.5222 259° West 445 512 32,000  Level Oakland Center
Sun 08:50:43 AM 38.3478 -117.6767 259° West 447 514 32,000  Level Oakland Center
Sun 08:51:43 AM 38.3231 -117.8308 258° West 447 514 32,000  Level Oakland Center
Sun 08:52:43 AM 38.2986 -117.9847 259° West 445 512 32,000  Level Oakland Center
Sun 08:53:44 AM 38.2736 -118.1333 258° West 448 516 32,000  Level Oakland Center
Sun 08:59:02 AM 38.1320 -118.9780 258° West 454 522 32,000  Level FlightAware ADS-B
Sun 08:59:47 AM 38.1110 -119.1010 258° West 454 522 32,000  Level FlightAware ADS-B
Sun 09:00:22 AM 38.0950 -119.1890 257° West 454 522 32,000  Level FlightAware ADS-B
Sun 09:01:07 AM 38.0750 -119.3090 258° West 454 522 32,000  Level FlightAware ADS-B
Sun 09:01:47 AM 38.0570 -119.4080 257° West 455 524 32,000  Level FlightAware ADS-B
Sun 09:02:32 AM 38.0380 -119.5130 257° West 455 524 32,000  Level FlightAware ADS-B
Sun 09:03:17 AM 38.0150 -119.6480 258° West 456 525 32,000  Level FlightAware ADS-B
Sun 09:03:57 AM 37.9960 -119.7520 257° West 457 526 32,000  Level FlightAware ADS-B
Sun 09:04:37 AM 37.9780 -119.8510 257° West 457 526 32,000  Level FlightAware ADS-B
Sun 09:05:22 AM 37.9570 -119.9710 258° West 457 526 32,000  Level FlightAware ADS-B
Sun 09:06:02 AM 37.9380 -120.0760 257° West 457 526 32,000  Level FlightAware ADS-B
Sun 09:06:42 AM 37.9190 -120.1800 257° West 458 527 32,000  Level FlightAware ADS-B
Sun 09:07:27 AM 37.8960 -120.3000 256° West 459 528 32,000  Level FlightAware ADS-B
Sun 09:08:12 AM 37.8750 -120.4150 257° West 460 529 32,000  Level FlightAware ADS-B
Sun 09:08:52 AM 37.8560 -120.5200 257° West 460 529 32,000  Level FlightAware ADS-B
Sun 09:09:37 AM 37.8340 -120.6350 256° West 461 531 32,000  Level FlightAware ADS-B
Sun 09:10:17 AM 37.8140 -120.7400 256° West 461 531 32,000  Level FlightAware ADS-B
Sun 09:10:57 AM 37.7940 -120.8480 257° West 461 531 32,000  Level FlightAware ADS-B
Sun 09:11:37 AM 37.7750 -120.9480 257° West 462 532 32,000  Level FlightAware ADS-B
Sun 09:12:22 AM 37.7510 -121.0740 256° West 463 533 32,000  Level FlightAware ADS-B
Sun 09:13:07 AM 37.7290 -121.1870 256° West 464 534 32,000  Level FlightAware ADS-B
Sun 09:13:47 AM 37.7090 -121.2950 257° West 465 535 32,000  Level FlightAware ADS-B
Sun 09:14:27 AM 37.6880 -121.4010 256° West 466 536 32,000  Level FlightAware ADS-B
Sun 09:15:07 AM 37.6670 -121.5060 256° West 466 536 32,000  Level FlightAware ADS-B
Sun 09:15:52 AM 37.6430 -121.6280 256° West 467 537 32,000 71 Level FlightAware ADS-B
Sun 09:16:32 AM 37.6220 -121.7340 256° West 465 535 32,100  Climbing FlightAware ADS-B
Sun 09:17:17 AM 37.6000 -121.8490 256° West 463 533 32,000 -71 Descending FlightAware ADS-B
Sun 09:17:57 AM 37.5790 -121.9540 256° West 462 532 32,000  Level FlightAware ADS-B
Sun 09:18:37 AM 37.5580 -122.0580 256° West 462 532 32,000  Level FlightAware ADS-B
Sun 09:19:22 AM 37.5340 -122.1760 256° West 462 532 32,000  Level FlightAware ADS-B
Sun 09:20:07 AM 37.5110 -122.2900 256° West 461 531 32,000  Level FlightAware ADS-B
Sun 09:20:47 AM 37.4900 -122.3940 256° West 463 533 32,000  Level FlightAware ADS-B
Sun 09:21:22 AM 37.4710 -122.4890 256° West 465 535 32,000 71 Level FlightAware ADS-B
Sun 09:22:12 AM 37.4440 -122.6170 255° West 467 537 32,100 67 Climbing FlightAware ADS-B
Sun 09:22:52 AM 37.4210 -122.7250 255° West 467 537 32,100  Level FlightAware ADS-B
Sun 09:23:32 AM 37.4000 -122.8300 256° West 467 537 32,100 -71 Level FlightAware ADS-B
Sun 09:24:17 AM 37.3740 -122.9510 255° West 465 535 32,000 -71 Descending FlightAware ADS-B
Sun 09:24:57 AM 37.3530 -123.0530 256° West 465 535 32,000  Level FlightAware ADS-B
Sun 09:25:42 AM 37.3280 -123.1700 255° West 466 536 32,000  Level FlightAware ADS-B
Sun 09:26:22 AM 37.3050 -123.2780 255° West 469 540 32,000  Level FlightAware ADS-B
Sun 09:27:07 AM 37.2810 -123.3920 255° West 472 543 32,000  Level FlightAware ADS-B
Sun 09:27:47 AM 37.2590 -123.4950 255° West 474 545 32,000 57 Level FlightAware ADS-B
Sun 09:28:52 AM 37.2230 -123.6660 255° West 474 545 32,100 50 Climbing FlightAware ADS-B
Sun 09:29:47 AM 37.1900 -123.8110 254° West 474 545 32,100  Level FlightAware ADS-B
Sun 09:30:37 AM 37.1640 -123.9240 254° West 474 545 32,100  Level FlightAware ADS-B
Sun 09:31:17 AM 37.1440 -124.0140 254° West 474 545 32,100  Level FlightAware ADS-B
Sun 09:31:57 AM 37.1230 -124.1040 254° West 474 545 32,100  Level FlightAware ADS-B
Sun 09:32:37 AM 37.1030 -124.1930 254° West 474 545 32,100  Level FlightAware ADS-B
Sun 09:33:17 AM 37.0820 -124.2830 254° West 474 545 32,100  Level FlightAware ADS-B
Sun 09:33:57 AM 37.0610 -124.3730 254° West 474 545 32,100  Level FlightAware ADS-B
Sun 09:34:47 AM 37.0360 -124.4850 254° West 474 545 32,100  Level FlightAware ADS-B
Sun 09:35:27 AM 37.0150 -124.5750 254° West 474 545 32,100  Level FlightAware ADS-B
Sun 09:36:07 AM 36.9950 -124.6650 254° West 474 545 32,100  Level FlightAware ADS-B
Sun 09:36:47 AM 36.9740 -124.7550 254° West 474 545 32,100  Level FlightAware ADS-B
Sun 09:37:37 AM 36.9480 -124.8670 254° West 474 545 32,100  Level FlightAware ADS-B
Sun 09:38:17 AM 36.9280 -124.9560 254° West 474 545 32,100  Level FlightAware ADS-B
Sun 09:38:57 AM 36.9070 -125.0460 254° West 474 545 32,100 -58 Level FlightAware ADS-B
Sun 09:40:00 AM 36.8314 -125.4131 254° West 469 540 32,000 -49 Descending Oakland Center
Sun 09:41:00 AM 36.7942 -125.5700 254° West 472 543 32,000 -50 Level Oakland Center
Sun 09:42:01 AM 36.7581 -125.7242 254° West 467 537 31,900 -50 Descending Oakland Center
Sun 09:43:01 AM 36.7228 -125.8783 254° West 465 535 31,900  Level Oakland Center
Sun 09:44:02 AM 36.6853 -126.0297 253° West 459 528 31,900 50 Level Oakland Center
Sun 09:45:02 AM 36.6489 -126.1833 254° West 462 532 32,000 50 Climbing Oakland Center
Sun 09:46:03 AM 36.6111 -126.3369 253° West 465 535 32,000  Level Oakland Center
Sun 09:47:03 AM 36.5744 -126.4922 254° West 467 537 32,000  Level Oakland Center
Sun 09:47:58 AM 36.5333 -126.6167 255° West 465 535 32,000  Level Oakland Oceanic (ODAPS)
Sun 09:48:04 AM 36.5369 -126.6467 253° West 467 537 32,000  Level Oakland Center
Sun 09:49:04 AM 36.4997 -126.8025 255° West 469 540 32,000  Level Oakland Center
Sun 09:49:57 AM 36.4667 -126.9333 250° West 461 531 32,000  Level Oakland Oceanic (ODAPS)
Sun 09:51:06 AM 36.4500 -127.0000 250° West 461 531 32,000  Level Oakland Oceanic (ODAPS)
Sun 09:57:00 AM 36.1366 -128.0555 249° West 461 531 32,000  Level FlightAware Transoceanic
Sun 09:58:00 AM 36.0911 -128.2055 249° West 461 531 32,000  Level FlightAware Transoceanic
Sun 09:59:00 AM 36.0453 -128.3555 249° West 461 531 32,000  Level FlightAware Transoceanic
Sun 10:00:00 AM 35.9994 -128.5052 249° West 461 531 32,000  Level FlightAware Transoceanic
Sun 10:01:00 AM 35.9534 -128.6548 249° West 461 531 32,000  Level FlightAware Transoceanic
Sun 10:01:49 AM 35.9167 -128.7333 249° West 464 534 32,000  Level Oakland Oceanic (ODAPS)
Sun 10:02:00 AM 35.9071 -128.8041 249° West 461 531 32,000  Level FlightAware Transoceanic
Sun 10:03:00 AM 35.8606 -128.9534 249° West 461 531 32,000  Level FlightAware Transoceanic
Sun 10:04:00 AM 35.8140 -129.1024 249° West 461 531 32,000  Level FlightAware Transoceanic
Sun 10:05:00 AM 35.7672 -129.2513 249° West 461 531 32,000  Level FlightAware Transoceanic
Sun 10:06:00 AM 35.7201 -129.3999 249° West 461 531 32,000  Level FlightAware Transoceanic
Sun 10:07:00 AM 35.6817 -129.4872 249° West 464 534 32,000  Level FlightAware Transoceanic
Sun 10:08:00 AM 35.6341 -129.6375 249° West 464 534 32,000  Level FlightAware Transoceanic
Sun 10:09:00 AM 35.5863 -129.7875 249° West 464 534 32,000  Level FlightAware Transoceanic
Sun 10:10:00 AM 35.5384 -129.9374 248° West 464 534 32,000  Level FlightAware Transoceanic
Sun 10:11:00 AM 35.4903 -130.0871 248° West 464 534 32,000  Level FlightAware Transoceanic
Sun 10:12:00 AM 35.4420 -130.2366 248° West 464 534 32,000  Level FlightAware Transoceanic
Sun 10:13:00 AM 35.3935 -130.3860 248° West 464 534 32,000  Level FlightAware Transoceanic
Sun 10:14:00 AM 35.3448 -130.5352 248° West 464 534 32,000  Level FlightAware Transoceanic
Sun 10:15:00 AM 35.2960 -130.6841 248° West 464 534 32,000  Level FlightAware Transoceanic
Sun 10:15:41 AM 35.2667 -130.8000 248° West 455 524 32,000  Level Oakland Oceanic (ODAPS)
Sun 10:16:00 AM 35.2469 -130.8329 248° West 464 534 32,000  Level FlightAware Transoceanic
Sun 10:17:00 AM 35.1977 -130.9816 248° West 464 534 32,000  Level FlightAware Transoceanic
Sun 10:18:00 AM 35.1483 -131.1300 248° West 464 534 32,000  Level FlightAware Transoceanic
Sun 10:19:00 AM 35.0987 -131.2783 248° West 464 534 32,000  Level FlightAware Transoceanic
Sun 10:20:00 AM 35.0490 -131.4264 248° West 464 534 32,000  Level FlightAware Transoceanic
Sun 10:21:00 AM 34.9874 -131.6287 247° West 455 524 32,000  Level FlightAware Transoceanic
Sun 10:22:00 AM 34.9403 -131.7663 247° West 455 524 32,000  Level FlightAware Transoceanic
Sun 10:23:00 AM 34.8931 -131.9037 247° West 455 524 32,000  Level FlightAware Transoceanic
Sun 10:24:00 AM 34.8457 -132.0410 247° West 455 524 32,000  Level FlightAware Transoceanic
Sun 10:25:00 AM 34.7981 -132.1781 247° West 455 524 32,000  Level FlightAware Transoceanic
Sun 10:26:00 AM 34.7504 -132.3150 247° West 455 524 32,000  Level FlightAware Transoceanic
Sun 10:27:00 AM 34.7025 -132.4518 247° West 455 524 32,000  Level FlightAware Transoceanic
Sun 10:28:00 AM 34.6545 -132.5884 247° West 455 524 32,000  Level FlightAware Transoceanic
Sun 10:29:00 AM 34.6064 -132.7248 247° West 455 524 32,000  Level FlightAware Transoceanic
Sun 10:29:34 AM 34.5833 -132.7833 247° West 460 529 32,000  Level Oakland Oceanic (ODAPS)
Sun 10:30:00 AM 34.5580 -132.8611 247° West 455 524 32,000  Level FlightAware Transoceanic
Sun 10:31:00 AM 34.5096 -132.9973 247° West 455 524 32,000  Level FlightAware Transoceanic
Sun 10:32:00 AM 34.4610 -133.1333 247° West 455 524 32,000  Level FlightAware Transoceanic
Sun 10:33:00 AM 34.4122 -133.2691 246° West 455 524 32,000  Level FlightAware Transoceanic
Sun 10:34:00 AM 34.3633 -133.4048 246° West 455 524 32,000  Level FlightAware Transoceanic
Sun 10:35:00 AM 34.2767 -133.6405 246° West 460 529 32,000  Level FlightAware Transoceanic
Sun 10:36:00 AM 34.2250 -133.7827 246° West 460 529 32,000  Level FlightAware Transoceanic
Sun 10:37:00 AM 34.1732 -133.9248 246° West 460 529 32,000  Level FlightAware Transoceanic
Sun 10:38:00 AM 34.1212 -134.0667 246° West 460 529 32,000  Level FlightAware Transoceanic
Sun 10:39:00 AM 34.0690 -134.2085 246° West 460 529 32,000  Level FlightAware Transoceanic
Sun 10:40:00 AM 34.0167 -134.3500 246° West 460 529 32,000  Level FlightAware Transoceanic
Sun 10:41:00 AM 33.9649 -134.4902 246° West 460 529 32,000  Level FlightAware Transoceanic
Sun 10:42:00 AM 33.9129 -134.6302 246° West 460 529 32,000  Level FlightAware Transoceanic
Sun 10:43:00 AM 33.8608 -134.7701 246° West 460 529 32,000  Level FlightAware Transoceanic
Sun 10:43:25 AM 33.8667 -134.7500 246° West 465 535 32,000  Level Oakland Oceanic (ODAPS)
Sun 10:44:00 AM 33.8086 -134.9097 246° West 460 529 32,000  Level FlightAware Transoceanic
Sun 10:45:00 AM 33.7561 -135.0492 246° West 460 529 32,000  Level FlightAware Transoceanic
Sun 10:46:00 AM 33.7035 -135.1886 246° West 460 529 32,000  Level FlightAware Transoceanic
Sun 10:47:00 AM 33.6508 -135.3277 245° Southwest 460 529 32,000  Level FlightAware Transoceanic
Sun 10:48:00 AM 33.5979 -135.4667 245° Southwest 460 529 32,000  Level FlightAware Transoceanic
Sun 10:49:00 AM 33.5501 -135.5881 245° Southwest 465 535 32,000  Level FlightAware Transoceanic
Sun 10:50:00 AM 33.4968 -135.7272 245° Southwest 465 535 32,000  Level FlightAware Transoceanic
Sun 10:51:00 AM 33.4433 -135.8661 245° Southwest 465 535 32,000  Level FlightAware Transoceanic
Sun 10:52:00 AM 33.3897 -136.0049 245° Southwest 465 535 32,000  Level FlightAware Transoceanic
Sun 10:53:00 AM 33.3359 -136.1434 245° Southwest 465 535 32,000  Level FlightAware Transoceanic
Sun 10:54:00 AM 33.2820 -136.2818 245° Southwest 465 535 32,000  Level FlightAware Transoceanic
Sun 10:55:00 AM 33.2280 -136.4201 245° Southwest 465 535 32,000  Level FlightAware Transoceanic
Sun 10:56:00 AM 33.1737 -136.5581 245° Southwest 465 535 32,000  Level FlightAware Transoceanic
Sun 10:57:00 AM 33.1193 -136.6960 245° Southwest 465 535 32,000  Level FlightAware Transoceanic
Sun 10:57:17 AM 33.1333 -136.6833 245° Southwest 463 533 32,000  Level Oakland Oceanic (ODAPS)
Sun 10:58:00 AM 33.0648 -136.8337 245° Southwest 465 535 32,000  Level FlightAware Transoceanic
Sun 10:59:00 AM 33.0101 -136.9713 245° Southwest 465 535 32,000  Level FlightAware Transoceanic
Sun 11:00:00 AM 32.9553 -137.1086 245° Southwest 465 535 32,000  Level FlightAware Transoceanic
Sun 11:01:00 AM 32.9003 -137.2459 244° Southwest 465 535 32,000  Level FlightAware Transoceanic
Sun 11:02:00 AM 32.8451 -137.3829 244° Southwest 465 535 32,000  Level FlightAware Transoceanic
Sun 11:03:00 AM 32.8015 -137.5095 244° Southwest 463 533 32,000  Level FlightAware Transoceanic
Sun 11:04:00 AM 32.7456 -137.6465 244° Southwest 463 533 32,000  Level FlightAware Transoceanic
Sun 11:05:00 AM 32.6896 -137.7835 244° Southwest 463 533 32,000  Level FlightAware Transoceanic
Sun 11:06:00 AM 32.6335 -137.9202 244° Southwest 463 533 32,000  Level FlightAware Transoceanic
Sun 11:07:00 AM 32.5772 -138.0568 244° Southwest 463 533 32,000  Level FlightAware Transoceanic
Sun 11:08:00 AM 32.5208 -138.1932 244° Southwest 463 533 32,000  Level FlightAware Transoceanic
Sun 11:09:00 AM 32.4642 -138.3294 244° Southwest 463 533 32,000  Level FlightAware Transoceanic
Sun 11:10:00 AM 32.4075 -138.4655 244° Southwest 463 533 32,000  Level FlightAware Transoceanic
Sun 11:11:00 AM 32.3506 -138.6013 244° Southwest 463 533 32,000  Level FlightAware Transoceanic
Sun 11:11:10 AM 32.3500 -138.5833 244° Southwest 461 531 32,000  Level Oakland Oceanic (ODAPS)
Sun 11:12:00 AM 32.2936 -138.7370 244° Southwest 463 533 32,000  Level FlightAware Transoceanic
Sun 11:13:00 AM 32.2365 -138.8726 243° Southwest 463 533 32,000  Level FlightAware Transoceanic
Sun 11:14:00 AM 32.1791 -139.0080 243° Southwest 463 533 32,000  Level FlightAware Transoceanic
Sun 11:15:00 AM 32.1217 -139.1432 243° Southwest 463 533 32,000  Level FlightAware Transoceanic
Sun 11:16:00 AM 32.0641 -139.2782 243° Southwest 463 533 32,000  Level FlightAware Transoceanic
Sun 11:17:00 AM 32.0060 -139.4005 243° Southwest 461 531 32,000  Level FlightAware Transoceanic
Sun 11:18:00 AM 31.9482 -139.5361 243° Southwest 461 531 32,000  Level FlightAware Transoceanic
Sun 11:19:00 AM 31.8902 -139.6715 243° Southwest 461 531 32,000  Level FlightAware Transoceanic
Sun 11:20:00 AM 31.8321 -139.8068 243° Southwest 461 531 32,000  Level FlightAware Transoceanic
Sun 11:21:00 AM 31.7738 -139.9418 243° Southwest 461 531 32,000  Level FlightAware Transoceanic
Sun 11:22:00 AM 31.7154 -140.0768 243° Southwest 461 531 32,000  Level FlightAware Transoceanic
Sun 11:23:00 AM 31.6568 -140.2115 243° Southwest 461 531 32,000  Level FlightAware Transoceanic
Sun 11:24:00 AM 31.5981 -140.3461 243° Southwest 461 531 32,000  Level FlightAware Transoceanic
Sun 11:25:00 AM 31.5393 -140.4805 243° Southwest 461 531 32,000  Level FlightAware Transoceanic
Sun 11:26:00 AM 31.4803 -140.6147 243° Southwest 461 531 32,000  Level FlightAware Transoceanic
Sun 11:26:29 AM 31.5167 -140.5167 243° Southwest 485 558 32,000  Level Oakland Oceanic (ODAPS)
Sun 11:27:00 AM 31.4212 -140.7488 243° Southwest 461 531 32,000  Level FlightAware Transoceanic
Sun 11:28:00 AM 31.3619 -140.8827 243° Southwest 461 531 32,000  Level FlightAware Transoceanic
Sun 11:29:00 AM 31.3025 -141.0164 242° Southwest 461 531 32,000  Level FlightAware Transoceanic
Sun 11:30:00 AM 31.2430 -141.1499 242° Southwest 461 531 32,000  Level FlightAware Transoceanic
Sun 11:30:31 AM 31.1833 -141.2833 242° Southwest 473 544 32,000  Level Oakland Oceanic (ODAPS)
Sun 11:31:00 AM 31.1833 -141.2833 242° Southwest 461 531 32,000  Level FlightAware Transoceanic
Sun 11:32:00 AM 31.0657 -141.5435 242° Southwest 485 558 32,000  Level FlightAware Transoceanic
Sun 11:33:00 AM 31.0067 -141.6734 242° Southwest 485 558 32,000  Level FlightAware Transoceanic
Sun 11:34:00 AM 30.9475 -141.8031 242° Southwest 485 558 32,000  Level FlightAware Transoceanic
Sun 11:35:00 AM 30.8883 -141.9326 242° Southwest 485 558 32,000  Level FlightAware Transoceanic
Sun 11:36:00 AM 30.8149 -142.0924 242° Southwest 473 544 32,000  Level FlightAware Transoceanic
Sun 11:37:00 AM 30.7530 -142.2267 242° Southwest 473 544 32,000  Level FlightAware Transoceanic
Sun 11:38:00 AM 30.6909 -142.3607 242° Southwest 473 544 32,000  Level FlightAware Transoceanic
Sun 11:38:52 AM 30.6500 -142.4333 242° Southwest 469 540 32,000  Level Oakland Oceanic (ODAPS)
Sun 11:39:00 AM 30.6288 -142.4946 242° Southwest 473 544 32,000  Level FlightAware Transoceanic
Sun 11:40:00 AM 30.5665 -142.6284 242° Southwest 473 544 32,000  Level FlightAware Transoceanic
Sun 11:41:00 AM 30.5040 -142.7619 241° Southwest 473 544 32,000  Level FlightAware Transoceanic
Sun 11:42:00 AM 30.4414 -142.8953 241° Southwest 473 544 32,000  Level FlightAware Transoceanic
Sun 11:43:00 AM 30.3787 -143.0285 241° Southwest 473 544 32,000  Level FlightAware Transoceanic
Sun 11:44:00 AM 30.3158 -143.1616 241° Southwest 473 544 32,000  Level FlightAware Transoceanic
Sun 11:45:00 AM 30.2714 -143.2422 241° Southwest 469 540 32,000  Level FlightAware Transoceanic
Sun 11:46:00 AM 30.2078 -143.3764 241° Southwest 469 540 32,000  Level FlightAware Transoceanic
Sun 11:47:00 AM 30.1441 -143.5105 241° Southwest 469 540 32,000  Level FlightAware Transoceanic
Sun 11:48:00 AM 30.0802 -143.6443 241° Southwest 469 540 32,000  Level FlightAware Transoceanic
Sun 11:49:00 AM 30.0162 -143.7780 241° Southwest 469 540 32,000  Level FlightAware Transoceanic
Sun 11:50:00 AM 29.9521 -143.9115 241° Southwest 469 540 32,000  Level FlightAware Transoceanic
Sun 11:51:00 AM 29.8878 -144.0449 241° Southwest 469 540 32,000  Level FlightAware Transoceanic
Sun 11:52:00 AM 29.8234 -144.1781 241° Southwest 469 540 32,000  Level FlightAware Transoceanic
Sun 11:52:45 AM 29.7833 -144.2667 241° Southwest 462 532 32,000  Level Oakland Oceanic (ODAPS)
Sun 11:53:00 AM 29.7589 -144.3111 241° Southwest 469 540 32,000  Level FlightAware Transoceanic
Sun 11:54:00 AM 29.6942 -144.4439 241° Southwest 469 540 32,000  Level FlightAware Transoceanic
Sun 11:55:00 AM 29.6294 -144.5765 241° Southwest 469 540 32,000  Level FlightAware Transoceanic
Sun 11:56:00 AM 29.5645 -144.7090 241° Southwest 469 540 32,000  Level FlightAware Transoceanic
Sun 11:57:00 AM 29.4995 -144.8413 240° Southwest 469 540 32,000  Level FlightAware Transoceanic
Sun 11:58:00 AM 29.4343 -144.9735 240° Southwest 469 540 32,000  Level FlightAware Transoceanic
Sun 11:59:00 AM 29.4021 -145.0432 240° Southwest 462 532 32,000  Level FlightAware Transoceanic
Sun 12:00:00 PM 29.3381 -145.1721 240° Southwest 462 532 32,000  Level FlightAware Transoceanic
Sun 12:01:00 PM 29.2740 -145.3008 240° Southwest 462 532 32,000  Level FlightAware Transoceanic
Sun 12:02:00 PM 29.2097 -145.4293 240° Southwest 462 532 32,000  Level FlightAware Transoceanic
Sun 12:03:00 PM 29.1454 -145.5577 240° Southwest 462 532 32,000  Level FlightAware Transoceanic
Sun 12:04:00 PM 29.0809 -145.6859 240° Southwest 462 532 32,000  Level FlightAware Transoceanic
Sun 12:05:00 PM 29.0163 -145.8140 240° Southwest 462 532 32,000  Level FlightAware Transoceanic
Sun 12:06:00 PM 28.9516 -145.9419 240° Southwest 462 532 32,000  Level FlightAware Transoceanic
Sun 12:06:42 PM 28.9000 -146.0333 240° Southwest 456 525 32,000  Level Oakland Oceanic (ODAPS)
Sun 12:07:00 PM 28.8867 -146.0696 240° Southwest 462 532 32,000  Level FlightAware Transoceanic
Sun 12:08:00 PM 28.8218 -146.1972 240° Southwest 462 532 32,000  Level FlightAware Transoceanic
Sun 12:09:00 PM 28.7567 -146.3246 240° Southwest 462 532 32,000  Level FlightAware Transoceanic
Sun 12:10:00 PM 28.6915 -146.4519 240° Southwest 462 532 32,000  Level FlightAware Transoceanic
Sun 12:11:00 PM 28.6262 -146.5790 240° Southwest 462 532 32,000  Level FlightAware Transoceanic
Sun 12:12:00 PM 28.5608 -146.7059 240° Southwest 462 532 32,000  Level FlightAware Transoceanic
Sun 12:13:00 PM 28.4659 -146.8837 240° Southwest 456 525 32,000  Level FlightAware Transoceanic
Sun 12:14:00 PM 28.4034 -147.0046 240° Southwest 456 525 32,000  Level FlightAware Transoceanic
Sun 12:15:00 PM 28.3409 -147.1253 239° Southwest 456 525 32,000  Level FlightAware Transoceanic
Sun 12:16:00 PM 28.2782 -147.2459 239° Southwest 456 525 32,000  Level FlightAware Transoceanic
Sun 12:17:00 PM 28.2154 -147.3664 239° Southwest 456 525 32,000  Level FlightAware Transoceanic
Sun 12:18:00 PM 28.1525 -147.4868 239° Southwest 456 525 32,000  Level FlightAware Transoceanic
Sun 12:19:00 PM 28.0896 -147.6069 239° Southwest 456 525 32,000  Level FlightAware Transoceanic
Sun 12:20:00 PM 28.0265 -147.7270 239° Southwest 456 525 32,000  Level FlightAware Transoceanic
Sun 12:20:29 PM 28.0167 -147.7167 242° Southwest 448 516 32,000  Level Oakland Oceanic (ODAPS)
Sun 12:21:00 PM 27.9633 -147.8469 239° Southwest 456 525 32,000  Level FlightAware Transoceanic
Sun 12:22:00 PM 27.9000 -147.9667 239° Southwest 456 525 32,000  Level FlightAware Transoceanic
Sun 12:22:35 PM 27.9000 -147.9667 239° Southwest 441 507 32,000  Level Oakland Oceanic (ODAPS)
Sun 12:23:00 PM 27.8382 -148.0823 239° Southwest 456 525 32,000  Level FlightAware Transoceanic
Sun 12:24:00 PM 27.7763 -148.1979 239° Southwest 456 525 32,000  Level FlightAware Transoceanic
Sun 12:25:00 PM 27.7143 -148.3133 239° Southwest 456 525 32,000  Level FlightAware Transoceanic
Sun 12:26:00 PM 27.6522 -148.4286 239° Southwest 448 516 32,000  Level FlightAware Transoceanic
Sun 12:27:00 PM 27.5900 -148.5437 239° Southwest 448 516 32,000  Level FlightAware Transoceanic
Sun 12:28:00 PM 27.5277 -148.6588 239° Southwest 448 516 32,000  Level FlightAware Transoceanic
Sun 12:29:00 PM 27.4574 -148.7883 238° Southwest 441 507 32,000  Level FlightAware Transoceanic
Sun 12:30:00 PM 27.3937 -148.9051 238° Southwest 441 507 32,000  Level FlightAware Transoceanic
Sun 12:31:00 PM 27.3300 -149.0218 238° Southwest 441 507 32,000  Level FlightAware Transoceanic
Sun 12:32:00 PM 27.2662 -149.1383 238° Southwest 441 507 32,000  Level FlightAware Transoceanic
Sun 12:33:00 PM 27.2023 -149.2548 238° Southwest 441 507 32,000  Level FlightAware Transoceanic
Sun 12:34:00 PM 27.1383 -149.3711 238° Southwest 441 507 32,000  Level FlightAware Transoceanic
Sun 12:34:20 PM 27.1333 -149.3833 238° Southwest 440 506 32,000  Level Oakland Oceanic (ODAPS)
Sun 12:35:00 PM 27.0742 -149.4872 238° Southwest 441 507 32,000  Level FlightAware Transoceanic
Sun 12:36:00 PM 27.0100 -149.6032 238° Southwest 441 507 32,000  Level FlightAware Transoceanic
Sun 12:37:00 PM 26.9457 -149.7191 238° Southwest 441 507 32,000  Level FlightAware Transoceanic
Sun 12:38:00 PM 26.8813 -149.8349 238° Southwest 441 507 32,000  Level FlightAware Transoceanic
Sun 12:39:00 PM 26.8168 -149.9505 238° Southwest 441 507 32,000  Level FlightAware Transoceanic
Sun 12:40:00 PM 26.7479 -150.0765 238° Southwest 440 506 32,000  Level FlightAware Transoceanic
Sun 12:41:00 PM 26.6833 -150.1916 238° Southwest 440 506 32,000  Level FlightAware Transoceanic
Sun 12:42:00 PM 26.6187 -150.3065 238° Southwest 440 506 32,000  Level FlightAware Transoceanic
Sun 12:43:00 PM 26.5539 -150.4214 238° Southwest 440 506 32,000  Level FlightAware Transoceanic
Sun 12:44:00 PM 26.4891 -150.5360 238° Southwest 440 506 32,000  Level FlightAware Transoceanic
Sun 12:45:00 PM 26.4241 -150.6506 238° Southwest 440 506 32,000  Level FlightAware Transoceanic
Sun 12:46:00 PM 26.3591 -150.7650 238° Southwest 440 506 32,000  Level FlightAware Transoceanic
Sun 12:47:00 PM 26.2940 -150.8793 238° Southwest 440 506 32,000  Level FlightAware Transoceanic
Sun 12:48:00 PM 26.2288 -150.9935 237° Southwest 440 506 32,000  Level FlightAware Transoceanic
Sun 12:48:13 PM 26.2167 -151.0000 238° Southwest 437 503 32,000  Level Oakland Oceanic (ODAPS)
Sun 12:49:00 PM 26.1635 -151.1075 237° Southwest 440 506 32,000  Level FlightAware Transoceanic
Sun 12:50:00 PM 26.0981 -151.2214 237° Southwest 440 506 32,000  Level FlightAware Transoceanic
Sun 12:51:00 PM 26.0326 -151.3352 237° Southwest 440 506 32,000  Level FlightAware Transoceanic
Sun 12:52:00 PM 25.9671 -151.4489 237° Southwest 440 506 32,000  Level FlightAware Transoceanic
Sun 12:53:00 PM 25.9014 -151.5624 237° Southwest 440 506 32,000  Level FlightAware Transoceanic
Sun 12:54:00 PM 25.8260 -151.6809 237° Southwest 437 503 32,000  Level FlightAware Transoceanic
Sun 12:55:00 PM 25.7606 -151.7939 237° Southwest 437 503 32,000  Level FlightAware Transoceanic
Sun 12:56:00 PM 25.6951 -151.9069 237° Southwest 437 503 32,000  Level FlightAware Transoceanic
Sun 12:57:00 PM 25.6295 -152.0197 237° Southwest 437 503 32,000  Level FlightAware Transoceanic
Sun 12:58:00 PM 25.5638 -152.1323 237° Southwest 437 503 32,000  Level FlightAware Transoceanic
Sun 12:59:00 PM 25.4981 -152.2449 237° Southwest 437 503 32,000  Level FlightAware Transoceanic
Sun 01:00:00 PM 25.4322 -152.3573 237° Southwest 437 503 32,000  Level FlightAware Transoceanic
Sun 01:01:00 PM 25.3663 -152.4696 237° Southwest 437 503 32,000  Level FlightAware Transoceanic
Sun 01:02:00 PM 25.3003 -152.5818 237° Southwest 437 503 32,000  Level FlightAware Transoceanic
Sun 01:02:05 PM 25.3000 -152.5833 237° Southwest 436 502 32,000  Level Oakland Oceanic (ODAPS)
Sun 01:03:00 PM 25.2342 -152.6938 237° Southwest 437 503 32,000  Level FlightAware Transoceanic
Sun 01:04:00 PM 25.1680 -152.8058 237° Southwest 437 503 32,000  Level FlightAware Transoceanic
Sun 01:05:00 PM 25.1017 -152.9176 237° Southwest 437 503 32,000  Level FlightAware Transoceanic
Sun 01:06:00 PM 25.0354 -153.0293 237° Southwest 437 503 32,000  Level FlightAware Transoceanic
Sun 01:07:00 PM 24.9689 -153.1409 237° Southwest 437 503 32,000  Level FlightAware Transoceanic
Sun 01:08:00 PM 24.9022 -153.2532 237° Southwest 436 502 32,000  Level FlightAware Transoceanic
Sun 01:09:00 PM 24.8356 -153.3645 237° Southwest 436 502 32,000  Level FlightAware Transoceanic
Sun 01:10:00 PM 24.7690 -153.4756 237° Southwest 436 502 32,000  Level FlightAware Transoceanic
Sun 01:11:00 PM 24.7022 -153.5865 236° Southwest 436 502 32,000  Level FlightAware Transoceanic
Sun 01:12:00 PM 24.6354 -153.6974 236° Southwest 436 502 32,000  Level FlightAware Transoceanic
Sun 01:13:00 PM 24.5685 -153.8082 236° Southwest 436 502 32,000  Level FlightAware Transoceanic
Sun 01:14:00 PM 24.5015 -153.9188 236° Southwest 436 502 32,000  Level FlightAware Transoceanic
Sun 01:15:00 PM 24.4344 -154.0293 236° Southwest 436 502 32,000  Level FlightAware Transoceanic
Sun 01:15:47 PM 24.3500 -154.1667 237° Southwest 453 521 32,000  Level Oakland Oceanic (ODAPS)
Sun 01:16:00 PM 24.3672 -154.1397 236° Southwest 436 502 32,000  Level FlightAware Transoceanic
Sun 01:17:00 PM 24.3000 -154.2500 236° Southwest 436 502 32,000  Level FlightAware Transoceanic
Sun 01:17:46 PM 24.2000 -154.3833 236° Southwest 440 506 32,000  Level Honolulu Center
Sun 01:18:00 PM 24.2307 -154.3627 236° Southwest 436 502 32,000  Level FlightAware Transoceanic
Sun 01:18:46 PM 24.1333 -154.5000 238° Southwest 450 518 32,000  Level Honolulu Center
Sun 01:19:00 PM 24.1613 -154.4753 236° Southwest 436 502 32,000  Level FlightAware Transoceanic
Sun 01:19:45 PM 24.0667 -154.6000 234° Southwest 460 529 32,000  Level Honolulu Center
Sun 01:20:00 PM 24.0919 -154.5878 236° Southwest 436 502 32,000  Level FlightAware Transoceanic
Sun 01:20:46 PM 23.9833 -154.7167 232° Southwest 450 518 32,000  Level Honolulu Center
Sun 01:21:00 PM 24.0224 -154.7002 236° Southwest 436 502 32,000  Level FlightAware Transoceanic
Sun 01:21:46 PM 23.9000 -154.8167 228° Southwest 450 518 32,000  Level Honolulu Center
Sun 01:22:00 PM 23.9179 -154.8685 236° Southwest 453 521 32,000  Level FlightAware Transoceanic
Sun 01:22:46 PM 23.8000 -154.9167 222° Southwest 450 518 32,000  Level Honolulu Center
Sun 01:23:00 PM 23.8540 -154.9712 236° Southwest 453 521 32,000  Level FlightAware Transoceanic
Sun 01:23:46 PM 23.7167 -155.0167 228° Southwest 460 529 32,000  Level Honolulu Center
Sun 01:24:46 PM 23.6333 -155.1167 228° Southwest 450 518 32,000  Level Honolulu Center
Sun 01:25:46 PM 23.5333 -155.2000 217° Southwest 450 518 32,000  Level Honolulu Center
Sun 01:26:47 PM 23.4500 -155.3000 228° Southwest 450 518 32,000  Level Honolulu Center
Sun 01:27:47 PM 23.3667 -155.4000 228° Southwest 450 518 32,000  Level Honolulu Center
Sun 01:28:47 PM 23.2667 -155.5000 223° Southwest 460 529 32,000  Level Honolulu Center
Sun 01:29:47 PM 23.1833 -155.6000 228° Southwest 440 506 32,000  Level Honolulu Center
Sun 01:30:47 PM 23.1000 -155.7000 228° Southwest 450 518 32,000  Level Honolulu Center
Sun 01:31:47 PM 23.0167 -155.7833 223° Southwest 450 518 32,000  Level Honolulu Center
Sun 01:32:47 PM 22.9167 -155.8833 223° Southwest 450 518 32,000  Level Honolulu Center
Sun 01:33:48 PM 22.8333 -155.9833 228° Southwest 450 518 32,000  Level Honolulu Center
Sun 01:34:47 PM 22.7500 -156.0833 228° Southwest 450 518 32,000  Level Honolulu Center
Sun 01:35:48 PM 22.6500 -156.1667 218° Southwest 450 518 32,000  Level Honolulu Center
Sun 01:36:48 PM 22.5667 -156.2667 228° Southwest 450 518 32,000  Level Honolulu Center
Sun 01:37:48 PM 22.4833 -156.3667 228° Southwest 450 518 32,000  Level Honolulu Center
Sun 01:38:48 PM 22.3833 -156.4667 223° Southwest 450 518 32,000 -50 Level Honolulu Center
Sun 01:39:48 PM 22.3000 -156.5500 223° Southwest 450 518 31,900  Descending Honolulu Center
Sun 01:40:48 PM 22.2167 -156.6500 228° Southwest 450 518 32,000 -595 Climbing Honolulu Center
Sun 01:41:49 PM 22.1167 -156.7500 223° Southwest 450 518 30,700 -2,281 Descending Honolulu Center
Sun 01:42:49 PM 22.0333 -156.8333 223° Southwest 450 518 27,400 -3,050 Descending Honolulu Center
Sun 01:43:49 PM 21.9500 -156.9333 228° Southwest 450 518 24,600 -2,850 Descending Honolulu Center
Sun 01:44:49 PM 21.8667 -157.0167 223° Southwest 450 518 21,700 -2,900 Descending Honolulu Center
Sun 01:45:49 PM 21.7667 -157.1333 227° Southwest 430 495 18,800 -2,950 Descending Honolulu Center
Sun 01:46:49 PM 21.6833 -157.2167 223° Southwest 420 483 15,800 -2,900 Descending Honolulu Center
Sun 01:47:49 PM 21.6000 -157.3000 223° Southwest 410 472 13,000 -2,150 Descending Honolulu Center
Sun 01:48:49 PM 21.5167 -157.3833 223° Southwest 390 449 11,500 -1,450 Descending Honolulu Center
Sun 01:49:49 PM 21.4500 -157.4667 229° Southwest 380 437 10,100 -750 Descending Honolulu Center
Sun 01:50:49 PM 21.4167 -157.5833 253° West 360 414 10,000 -50 Descending Honolulu Center
Sun 01:51:49 PM 21.3833 -157.6500 242° Southwest 290 334 10,000 -248 Level Honolulu Center
Sun 01:52:50 PM 21.3500 -157.7333 247° West 290 334 9,500 -992 Descending Honolulu Center
Sun 01:53:50 PM 21.3000 -157.8000 231° Southwest 270 311 8,000 -1,200 Descending Honolulu Center
Sun 01:54:50 PM 21.2500 -157.8667 231° Southwest 280 322 7,100 -900 Descending Honolulu Center

Login

Don't have an account? Register now (free) for customized features, flight alerts, and more!